createdAt,value
2023-05-15T00:00:40.407Z,7.14
2023-05-15T00:02:04.875Z,7.05
2023-05-15T00:03:26.842Z,6.76
2023-05-15T00:04:51.254Z,7.24
2023-05-15T00:06:12.829Z,7.08
2023-05-15T00:07:34.937Z,7.21
2023-05-15T00:09:08.615Z,7.27
2023-05-15T00:10:30.675Z,7.14
2023-05-15T00:11:52.503Z,6.83
2023-05-15T00:13:16.777Z,7.09
2023-05-15T00:14:38.760Z,6.97
2023-05-15T00:16:00.812Z,6.94
2023-05-15T00:17:22.801Z,7.16
2023-05-15T00:18:44.972Z,6.98
2023-05-15T00:20:07.644Z,7.55
2023-05-15T00:21:29.860Z,7.28
2023-05-15T00:22:51.853Z,7.35
2023-05-15T00:24:13.801Z,7.17
2023-05-15T00:25:35.476Z,7.45
2023-05-15T00:26:59.581Z,7.28
2023-05-15T00:28:21.335Z,7.38
2023-05-15T00:29:43.897Z,7.38
2023-05-15T00:31:06.163Z,7.59
2023-05-15T00:32:27.707Z,7.49
2023-05-15T00:33:49.756Z,7.33
2023-05-15T00:35:18.628Z,7.33
2023-05-15T00:36:52.642Z,7.34
2023-05-15T00:38:39.522Z,7.68
2023-05-15T00:40:12.994Z,7.60
2023-05-15T00:42:00.639Z,7.96
2023-05-15T00:43:48.317Z,7.60
2023-05-15T00:45:28.961Z,8.46
2023-05-15T00:47:15.235Z,7.89
2023-05-15T00:48:49.837Z,7.91
2023-05-15T00:50:24.633Z,7.33
2023-05-15T00:52:10.759Z,7.51
2023-05-15T00:53:55.126Z,7.62
2023-05-15T00:55:31.216Z,8.02
2023-05-15T00:57:04.505Z,7.97
2023-05-15T00:58:38.113Z,7.61
2023-05-15T01:00:25.179Z,7.30
2023-05-15T01:02:06.718Z,7.55
2023-05-15T01:03:40.838Z,7.84
2023-05-15T01:05:17.585Z,7.81
2023-05-15T01:07:11.029Z,7.85
2023-05-15T01:08:44.614Z,7.94
2023-05-15T01:10:25.327Z,7.65
2023-05-15T01:11:47.404Z,8.65
2023-05-15T01:13:20.662Z,7.66
2023-05-15T01:14:54.838Z,8.43
2023-05-15T01:16:28.449Z,7.65
2023-05-15T01:18:09.855Z,7.97
2023-05-15T01:19:46.100Z,8.10
2023-05-15T01:21:31.724Z,8.81
2023-05-15T01:22:53.837Z,7.91
2023-05-15T01:24:15.273Z,8.43
2023-05-15T01:25:49.137Z,8.00
2023-05-15T01:27:34.139Z,8.04
2023-05-15T01:29:07.976Z,8.38
2023-05-15T01:30:41.670Z,8.47
2023-05-15T01:32:37.098Z,8.01
2023-05-15T01:34:22.588Z,8.38
2023-05-15T01:36:17.093Z,8.25
2023-05-15T01:37:57.970Z,8.79
2023-05-15T01:39:39.642Z,8.54
2023-05-15T01:41:20.110Z,8.83
2023-05-15T01:42:53.763Z,8.97
2023-05-15T01:44:30.031Z,8.62
2023-05-15T01:45:56.083Z,8.72
2023-05-15T01:47:42.369Z,9.14
2023-05-15T01:49:29.304Z,9.60
2023-05-15T01:51:10.682Z,9.10
2023-05-15T01:52:53.477Z,8.91
2023-05-15T01:54:22.906Z,9.28
2023-05-15T01:55:59.741Z,8.89
2023-05-15T01:57:36.157Z,8.80
2023-05-15T01:59:19.173Z,9.09
2023-05-15T02:01:11.546Z,8.23
2023-05-15T02:02:44.971Z,8.10
2023-05-15T02:04:07.171Z,8.56
2023-05-15T02:05:52.418Z,8.96
2023-05-15T02:07:38.358Z,8.29
2023-05-15T02:09:19.607Z,8.71
2023-05-15T02:11:00.480Z,9.04
2023-05-15T02:12:46.103Z,9.66
2023-05-15T02:14:22.129Z,9.63
2023-05-15T02:16:03.671Z,9.87
2023-05-15T02:17:39.726Z,9.81
2023-05-15T02:19:02.020Z,8.96
2023-05-15T02:20:43.777Z,8.90
2023-05-15T02:22:10.788Z,9.11
2023-05-15T02:23:41.705Z,9.29
2023-05-15T02:25:16.230Z,9.40
2023-05-15T02:27:01.640Z,9.35
2023-05-15T02:28:48.389Z,9.87
2023-05-15T02:30:33.896Z,9.86
2023-05-15T02:31:56.316Z,9.99
2023-05-15T02:33:41.477Z,9.52
2023-05-15T02:35:15.181Z,9.28
2023-05-15T02:36:39.422Z,8.81
2023-05-15T02:38:12.930Z,9.45
2023-05-15T02:39:53.970Z,8.84
2023-05-15T02:41:31.077Z,9.33
2023-05-15T02:43:07.229Z,9.77
2023-05-15T02:44:44.242Z,9.25
2023-05-15T02:46:18.227Z,8.96
2023-05-15T02:47:52.246Z,9.72
2023-05-15T02:49:16.157Z,9.11
2023-05-15T02:50:53.147Z,8.75
2023-05-15T02:52:26.750Z,8.82
2023-05-15T02:54:17.738Z,8.42
2023-05-15T02:56:03.450Z,8.78
2023-05-15T02:57:48.821Z,9.47
2023-05-15T02:59:25.347Z,8.88
2023-05-15T03:01:00.847Z,9.14
2023-05-15T03:02:47.901Z,8.67
2023-05-15T03:04:21.845Z,8.84
2023-05-15T03:06:07.973Z,8.79
2023-05-15T03:07:49.345Z,8.64
2023-05-15T03:09:41.742Z,8.57
2023-05-15T03:11:27.364Z,8.43
2023-05-15T03:12:52.550Z,8.40
2023-05-15T03:14:25.895Z,8.37
2023-05-15T03:16:10.386Z,7.77
2023-05-15T03:17:55.772Z,7.37
2023-05-15T03:19:41.515Z,7.40
2023-05-15T03:21:28.411Z,6.98
2023-05-15T03:23:02.385Z,7.42
2023-05-15T03:24:48.735Z,7.60
2023-05-15T03:26:40.083Z,7.37
2023-05-15T03:28:07.009Z,7.60
2023-05-15T03:29:52.187Z,7.37
2023-05-15T03:31:46.106Z,8.70
2023-05-15T03:33:32.020Z,10.90
2023-05-15T03:35:17.267Z,11.43
2023-05-15T03:37:03.134Z,9.56
2023-05-15T03:38:58.084Z,7.72
2023-05-15T03:40:45.011Z,7.58
2023-05-15T03:42:26.643Z,8.53
2023-05-15T03:44:03.093Z,8.05
2023-05-15T03:45:36.425Z,8.20
2023-05-15T03:47:10.524Z,7.94
2023-05-15T03:48:58.141Z,7.39
2023-05-15T03:50:34.026Z,6.96
2023-05-15T03:52:19.314Z,7.45
2023-05-15T03:54:05.174Z,7.99
2023-05-15T03:55:39.291Z,7.47
2023-05-15T03:57:01.782Z,8.06
2023-05-15T03:58:47.289Z,7.87
2023-05-15T04:00:41.094Z,8.20
2023-05-15T04:02:15.042Z,8.28
2023-05-15T04:03:37.013Z,7.88
2023-05-15T04:05:30.790Z,8.44
2023-05-15T04:07:16.320Z,7.84
2023-05-15T04:09:05.746Z,8.05
2023-05-15T04:10:52.476Z,8.14
2023-05-15T04:12:34.627Z,8.55
2023-05-15T04:14:24.047Z,8.49
2023-05-15T04:16:11.507Z,8.11
2023-05-15T04:17:57.788Z,7.60
2023-05-15T04:19:46.623Z,8.06
2023-05-15T04:21:24.362Z,7.93
2023-05-15T04:23:11.006Z,8.20
2023-05-15T04:24:56.514Z,7.61
2023-05-15T04:26:38.689Z,7.87
2023-05-15T04:28:22.812Z,7.73
2023-05-15T04:30:03.773Z,7.43
2023-05-15T04:31:39.349Z,6.88
2023-05-15T04:33:28.435Z,6.62
2023-05-15T04:35:02.407Z,6.62
2023-05-15T04:36:23.781Z,6.97
2023-05-15T04:38:17.542Z,7.04
2023-05-15T04:39:51.010Z,6.58
2023-05-15T04:41:36.045Z,6.73
2023-05-15T04:43:11.280Z,6.21
2023-05-15T04:44:44.836Z,6.11
2023-05-15T04:46:32.825Z,6.62
2023-05-15T04:48:18.208Z,6.35
2023-05-15T04:49:51.808Z,6.18
2023-05-15T04:51:25.563Z,6.11
2023-05-15T04:53:12.026Z,6.12
2023-05-15T04:54:58.063Z,6.46
2023-05-15T04:56:30.516Z,6.24
2023-05-15T04:58:22.363Z,6.41
2023-05-15T04:59:58.949Z,5.86
2023-05-15T05:01:33.472Z,5.97
2023-05-15T05:03:07.529Z,6.78
2023-05-15T05:04:32.220Z,6.91
2023-05-15T05:06:18.697Z,6.65
2023-05-15T05:07:52.379Z,7.35
2023-05-15T05:09:14.368Z,7.02
2023-05-15T05:10:38.538Z,6.88
2023-05-15T05:12:14.447Z,7.17
2023-05-15T05:14:08.385Z,9.37
2023-05-15T05:15:42.140Z,9.36
2023-05-15T05:17:15.817Z,10.30
2023-05-15T05:19:01.916Z,9.88
2023-05-15T05:20:35.570Z,10.19
2023-05-15T05:22:05.200Z,9.99
2023-05-15T05:23:41.467Z,9.51
2023-05-15T05:25:13.557Z,9.93
2023-05-15T05:26:59.249Z,9.53
2023-05-15T05:28:45.868Z,9.73
2023-05-15T05:30:39.570Z,10.43
2023-05-15T05:32:32.982Z,9.82
2023-05-15T05:34:18.865Z,9.89
2023-05-15T05:35:52.801Z,9.59
2023-05-15T05:37:38.863Z,10.09
2023-05-15T05:39:24.143Z,10.33
2023-05-15T05:41:18.048Z,10.00
2023-05-15T05:42:49.514Z,10.37
2023-05-15T05:44:34.466Z,10.67
2023-05-15T05:46:29.203Z,10.28
2023-05-15T05:48:06.414Z,9.53
2023-05-15T05:49:51.549Z,10.11
2023-05-15T05:51:44.918Z,10.13
2023-05-15T05:53:29.495Z,9.43
2023-05-15T05:55:03.763Z,9.37
2023-05-15T05:56:39.050Z,9.73
2023-05-15T05:58:32.634Z,10.01
2023-05-15T06:00:21.567Z,10.13
2023-05-15T06:02:07.194Z,10.15
2023-05-15T06:03:32.115Z,10.54
2023-05-15T06:04:57.248Z,9.59
2023-05-15T06:06:42.753Z,9.33
2023-05-15T06:08:36.005Z,9.39
2023-05-15T06:10:22.948Z,9.61
2023-05-15T06:12:09.646Z,9.48
2023-05-15T06:13:51.969Z,9.99
2023-05-15T06:15:25.437Z,10.37
2023-05-15T06:17:11.444Z,9.45
2023-05-15T06:18:45.941Z,9.51
2023-05-15T06:20:21.874Z,9.82
2023-05-15T06:21:55.470Z,10.14
2023-05-15T06:23:28.948Z,10.04
2023-05-15T06:25:22.617Z,10.27
2023-05-15T06:27:08.078Z,10.01
2023-05-15T06:28:44.117Z,10.72
2023-05-15T06:30:17.503Z,9.87
2023-05-15T06:31:51.439Z,9.08
2023-05-15T06:33:32.665Z,9.68
2023-05-15T06:34:59.322Z,10.12
2023-05-15T06:36:35.292Z,10.01
2023-05-15T06:38:20.792Z,9.08
2023-05-15T06:40:14.845Z,9.98
2023-05-15T06:41:48.197Z,10.20
2023-05-15T06:43:22.441Z,10.43
2023-05-15T06:44:56.242Z,9.97
2023-05-15T06:46:43.849Z,9.27
2023-05-15T06:48:29.108Z,8.84
2023-05-15T06:50:10.358Z,9.88
2023-05-15T06:51:43.803Z,9.68
2023-05-15T06:53:29.901Z,9.66
2023-05-15T06:55:03.442Z,9.35
2023-05-15T06:56:49.604Z,9.28
2023-05-15T06:58:43.094Z,8.63
2023-05-15T07:00:16.514Z,8.90
2023-05-15T07:01:58.838Z,9.56
2023-05-15T07:03:44.844Z,9.62
2023-05-15T07:05:31.189Z,9.68
2023-05-15T07:07:16.081Z,9.34
2023-05-15T07:08:52.630Z,9.63
2023-05-15T07:10:26.467Z,9.04
2023-05-15T07:12:11.851Z,9.11
2023-05-15T07:13:57.733Z,8.99
2023-05-15T07:15:43.150Z,9.57
2023-05-15T07:17:30.259Z,9.29
2023-05-15T07:19:04.178Z,9.06
2023-05-15T07:20:50.240Z,9.24
2023-05-15T07:22:55.145Z,9.10
2023-05-15T07:24:41.589Z,9.46
2023-05-15T07:26:23.640Z,9.72
2023-05-15T07:28:19.569Z,9.99
2023-05-15T07:29:52.830Z,9.75
2023-05-15T07:31:40.419Z,9.28
2023-05-15T07:33:28.265Z,9.70
2023-05-15T07:35:13.516Z,9.82
2023-05-15T07:36:49.564Z,9.75
2023-05-15T07:38:24.069Z,9.40
2023-05-15T07:40:09.963Z,9.00
2023-05-15T07:41:50.563Z,9.21
2023-05-15T07:43:24.239Z,10.04
2023-05-15T07:44:57.837Z,9.13
2023-05-15T07:46:31.305Z,10.03
2023-05-15T07:48:06.325Z,9.88
2023-05-15T07:49:47.152Z,9.65
2023-05-15T07:51:33.431Z,9.75
2023-05-15T07:53:28.139Z,8.96
2023-05-15T07:55:19.090Z,9.39
2023-05-15T07:56:55.538Z,9.36
2023-05-15T07:58:19.139Z,9.63
2023-05-15T07:59:41.050Z,9.43
2023-05-15T08:01:08.262Z,9.19
2023-05-15T08:02:37.963Z,9.23
2023-05-15T08:04:14.549Z,9.43
2023-05-15T08:05:43.668Z,9.08
2023-05-15T08:07:15.240Z,8.66
2023-05-15T08:08:36.970Z,8.31
2023-05-15T08:09:59.250Z,9.22
2023-05-15T08:11:22.967Z,8.44
2023-05-15T08:13:07.307Z,8.38
2023-05-15T08:14:31.590Z,8.98
2023-05-15T08:15:53.878Z,9.11
2023-05-15T08:17:16.029Z,9.11
2023-05-15T08:18:38.217Z,7.98
2023-05-15T08:20:00.657Z,7.70
2023-05-15T08:21:22.376Z,7.97
2023-05-15T08:22:44.371Z,8.54
2023-05-15T08:24:06.590Z,8.93
2023-05-15T08:25:28.160Z,8.42
2023-05-15T08:26:49.687Z,9.55
2023-05-15T08:28:11.880Z,8.86
2023-05-15T08:29:33.508Z,8.80
2023-05-15T08:30:55.450Z,9.11
2023-05-15T08:32:17.032Z,8.68
2023-05-15T08:33:38.986Z,8.49
2023-05-15T08:35:00.929Z,8.68
2023-05-15T08:36:23.158Z,8.89
2023-05-15T08:37:45.369Z,8.83
2023-05-15T08:39:09.168Z,9.15
2023-05-15T08:40:38.989Z,10.14
2023-05-15T08:42:02.067Z,9.68
2023-05-15T08:43:23.771Z,9.44
2023-05-15T08:44:45.560Z,9.06
2023-05-15T08:46:07.428Z,10.05
2023-05-15T08:47:32.378Z,9.87
2023-05-15T08:48:54.610Z,9.30
2023-05-15T08:50:16.121Z,9.25
2023-05-15T08:51:37.999Z,9.70
2023-05-15T08:53:01.714Z,9.90
2023-05-15T08:54:23.446Z,10.36
2023-05-15T08:55:45.690Z,9.80
2023-05-15T08:57:07.641Z,9.98
2023-05-15T08:58:32.092Z,10.16
2023-05-15T08:59:54.355Z,9.29
2023-05-15T09:01:15.826Z,9.91
2023-05-15T09:02:37.668Z,9.62
2023-05-15T09:04:00.095Z,9.99
2023-05-15T09:05:24.861Z,10.49
2023-05-15T09:06:47.071Z,10.65
2023-05-15T09:08:10.181Z,11.12
2023-05-15T09:09:32.162Z,10.71
2023-05-15T09:10:54.221Z,10.31
2023-05-15T09:12:15.800Z,10.84
2023-05-15T09:13:37.964Z,9.97
2023-05-15T09:14:59.993Z,10.01
2023-05-15T09:16:21.759Z,10.23
2023-05-15T09:17:43.585Z,11.06
2023-05-15T09:19:06.458Z,11.46
2023-05-15T09:20:28.381Z,11.38
2023-05-15T09:21:49.973Z,10.90
2023-05-15T09:23:11.779Z,11.05
2023-05-15T09:24:33.936Z,11.93
2023-05-15T09:25:57.267Z,11.28
2023-05-15T09:27:18.899Z,11.86
2023-05-15T09:28:40.934Z,12.48
2023-05-15T09:30:03.178Z,12.21
2023-05-15T09:31:25.081Z,11.27
2023-05-15T09:32:47.182Z,11.23
2023-05-15T09:34:10.199Z,11.26
2023-05-15T09:35:32.074Z,11.19
2023-05-15T09:36:54.050Z,11.02
2023-05-15T09:38:15.693Z,11.18
2023-05-15T09:39:37.495Z,11.10
2023-05-15T09:40:59.525Z,10.44
2023-05-15T09:42:21.464Z,11.43
2023-05-15T09:43:43.360Z,11.94
2023-05-15T09:45:05.544Z,11.62
2023-05-15T09:46:27.423Z,11.93
2023-05-15T09:47:49.321Z,11.69
2023-05-15T09:49:11.390Z,11.36
2023-05-15T09:50:33.619Z,11.42
2023-05-15T09:51:55.812Z,11.15
2023-05-15T09:53:21.450Z,11.01
2023-05-15T09:54:43.163Z,10.84
2023-05-15T09:56:05.331Z,10.81
2023-05-15T09:57:27.796Z,10.84
2023-05-15T09:58:49.262Z,10.95
2023-05-15T10:00:11.880Z,11.46
2023-05-15T10:01:33.833Z,12.71
2023-05-15T10:03:03.542Z,13.07
2023-05-15T10:04:25.303Z,13.08
2023-05-15T10:05:49.680Z,12.89
2023-05-15T10:07:14.165Z,11.73
2023-05-15T10:08:38.453Z,11.80
2023-05-15T10:10:00.595Z,11.32
2023-05-15T10:11:22.715Z,11.38
2023-05-15T10:12:44.964Z,11.68
2023-05-15T10:14:09.711Z,12.67
2023-05-15T10:15:33.796Z,13.61
2023-05-15T10:17:00.481Z,13.36
2023-05-15T10:18:22.236Z,13.58
2023-05-15T10:19:56.739Z,12.42
2023-05-15T10:21:22.889Z,11.79
2023-05-15T10:22:46.720Z,12.37
2023-05-15T10:24:08.630Z,12.26
2023-05-15T10:25:30.947Z,11.97
2023-05-15T10:27:04.749Z,12.29
2023-05-15T10:28:38.259Z,12.78
2023-05-15T10:30:00.249Z,12.02
2023-05-15T10:31:21.693Z,12.36
2023-05-15T10:32:43.615Z,11.88
2023-05-15T10:34:05.981Z,12.06
2023-05-15T10:35:28.177Z,12.09
2023-05-15T10:36:52.609Z,13.09
2023-05-15T10:38:17.190Z,12.86
2023-05-15T10:39:58.586Z,12.87
2023-05-15T10:41:20.987Z,12.73
2023-05-15T10:42:43.411Z,11.97
2023-05-15T10:44:05.414Z,12.29
2023-05-15T10:45:30.092Z,12.23
2023-05-15T10:46:51.612Z,11.95
2023-05-15T10:48:16.094Z,11.75
2023-05-15T10:49:42.553Z,12.53
2023-05-15T10:51:05.125Z,12.05
2023-05-15T10:52:29.208Z,13.14
2023-05-15T10:53:53.551Z,12.45
2023-05-15T10:55:15.459Z,11.85
2023-05-15T10:56:51.311Z,10.52
2023-05-15T10:58:14.424Z,10.65
2023-05-15T10:59:36.196Z,10.54
2023-05-15T11:00:58.350Z,10.77
2023-05-15T11:02:20.710Z,10.09
2023-05-15T11:03:49.429Z,10.37
2023-05-15T11:05:13.969Z,10.84
2023-05-15T11:06:36.139Z,10.25
2023-05-15T11:07:58.025Z,10.76
2023-05-15T11:09:19.645Z,10.41
2023-05-15T11:10:41.714Z,10.10
2023-05-15T11:12:03.587Z,10.13
2023-05-15T11:13:25.807Z,9.98
2023-05-15T11:14:47.769Z,9.48
2023-05-15T11:16:14.054Z,9.25
2023-05-15T11:17:36.418Z,9.65
2023-05-15T11:19:00.985Z,9.54
2023-05-15T11:20:22.980Z,9.59
2023-05-15T11:21:44.935Z,9.48
2023-05-15T11:23:14.208Z,9.93
2023-05-15T11:24:36.310Z,8.86
2023-05-15T11:26:13.179Z,9.90
2023-05-15T11:27:54.417Z,9.76
2023-05-15T11:29:30.481Z,9.84
2023-05-15T11:30:55.012Z,9.13
2023-05-15T11:32:16.599Z,9.32
2023-05-15T11:33:38.401Z,9.29
2023-05-15T11:35:01.090Z,9.10
2023-05-15T11:36:22.224Z,8.82
2023-05-15T11:37:43.973Z,9.38
2023-05-15T11:39:17.239Z,9.50
2023-05-15T11:40:39.128Z,9.23
2023-05-15T11:42:01.182Z,9.10
2023-05-15T11:43:25.300Z,8.09
2023-05-15T11:44:49.055Z,8.01
2023-05-15T11:46:22.606Z,7.70
2023-05-15T11:47:45.412Z,7.92
2023-05-15T11:49:09.685Z,7.20
2023-05-15T11:50:33.570Z,7.14
2023-05-15T11:51:56.037Z,6.92
2023-05-15T11:53:18.082Z,6.64
2023-05-15T11:54:39.577Z,6.75
2023-05-15T11:56:01.237Z,6.98
2023-05-15T11:57:23.115Z,6.64
2023-05-15T11:58:44.893Z,6.43
2023-05-15T12:00:06.778Z,6.67
2023-05-15T12:01:29.565Z,6.72
2023-05-15T12:02:51.198Z,6.74
2023-05-15T12:04:13.800Z,6.71
2023-05-15T12:05:35.277Z,7.11
2023-05-15T12:06:57.026Z,7.04
2023-05-15T12:08:30.468Z,7.11
2023-05-15T12:09:55.434Z,6.91
2023-05-15T12:11:19.219Z,6.96
2023-05-15T12:12:41.358Z,6.70
2023-05-15T12:14:05.786Z,7.41
2023-05-15T12:15:27.138Z,7.22
2023-05-15T12:16:51.260Z,6.78
2023-05-15T12:18:13.732Z,7.51
2023-05-15T12:19:35.706Z,7.28
2023-05-15T12:21:04.920Z,7.28
2023-05-15T12:22:26.580Z,7.08
2023-05-15T12:23:59.530Z,7.30
2023-05-15T12:25:40.325Z,7.13
2023-05-15T12:27:02.097Z,7.30
2023-05-15T12:28:23.631Z,7.26
2023-05-15T12:29:45.896Z,7.61
2023-05-15T12:31:08.060Z,7.45
2023-05-15T12:32:29.612Z,7.39
2023-05-15T12:33:51.458Z,8.00
2023-05-15T12:35:13.552Z,8.39
2023-05-15T12:36:39.910Z,7.48
2023-05-15T12:38:09.744Z,7.90
2023-05-15T12:39:33.490Z,8.10
2023-05-15T12:41:02.783Z,8.41
2023-05-15T12:42:24.342Z,7.92
2023-05-15T12:43:46.425Z,8.12
2023-05-15T12:45:08.230Z,7.77
2023-05-15T12:46:34.505Z,8.46
2023-05-15T12:47:59.621Z,7.96
2023-05-15T12:49:23.225Z,7.34
2023-05-15T12:50:53.182Z,7.65
2023-05-15T12:52:14.851Z,7.32
2023-05-15T12:53:39.246Z,7.66
2023-05-15T12:55:01.436Z,7.37
2023-05-15T12:56:22.824Z,7.81
2023-05-15T12:57:44.596Z,7.89
2023-05-15T12:59:06.525Z,7.45
2023-05-15T13:00:28.603Z,8.29
2023-05-15T13:01:57.843Z,8.04
2023-05-15T13:03:31.663Z,7.66
2023-05-15T13:04:53.294Z,7.64
2023-05-15T13:06:15.188Z,6.87
2023-05-15T13:07:39.118Z,8.08
2023-05-15T13:09:03.309Z,7.47
2023-05-15T13:10:25.049Z,7.73
2023-05-15T13:11:47.265Z,7.77
2023-05-15T13:13:33.119Z,8.01
2023-05-15T13:14:56.705Z,7.46
2023-05-15T13:16:20.730Z,7.94
2023-05-15T13:17:42.797Z,7.24
2023-05-15T13:19:17.409Z,7.11
2023-05-15T13:20:39.556Z,7.10
2023-05-15T13:22:01.520Z,7.36
2023-05-15T13:23:25.898Z,8.41
2023-05-15T13:24:50.020Z,8.25
2023-05-15T13:26:13.981Z,7.92
2023-05-15T13:27:54.909Z,7.78
2023-05-15T13:29:16.745Z,7.73
2023-05-15T13:30:41.439Z,7.84
2023-05-15T13:32:11.000Z,7.00
2023-05-15T13:33:32.975Z,7.35
2023-05-15T13:34:58.059Z,7.77
2023-05-15T13:36:21.967Z,7.66
2023-05-15T13:37:43.751Z,8.21
2023-05-15T13:39:06.478Z,8.14
2023-05-15T13:40:28.282Z,7.63
2023-05-15T13:41:50.262Z,7.26
2023-05-15T13:43:25.840Z,7.13
2023-05-15T13:44:50.617Z,7.34
2023-05-15T13:46:26.367Z,7.39
2023-05-15T13:47:49.994Z,7.89
2023-05-15T13:49:11.978Z,7.81
2023-05-15T13:50:33.690Z,9.42
2023-05-15T13:51:55.264Z,8.09
2023-05-15T13:53:35.962Z,8.50
2023-05-15T13:54:57.882Z,7.61
2023-05-15T13:56:26.941Z,8.39
2023-05-15T13:57:48.622Z,7.31
2023-05-15T13:59:11.060Z,9.97
2023-05-15T14:00:32.761Z,10.58
2023-05-15T14:01:54.705Z,8.99
2023-05-15T14:03:16.767Z,12.76
2023-05-15T14:04:38.613Z,9.89
2023-05-15T14:06:00.637Z,9.63
2023-05-15T14:07:22.327Z,7.70
2023-05-15T14:08:44.220Z,5.51
2023-05-15T14:10:13.408Z,5.89
2023-05-15T14:11:39.750Z,8.19
2023-05-15T14:13:01.954Z,5.33
2023-05-15T14:14:23.353Z,6.33
2023-05-15T14:15:45.103Z,7.69
2023-05-15T14:17:09.447Z,9.09
2023-05-15T14:18:35.699Z,9.81
2023-05-15T14:19:59.528Z,5.44
2023-05-15T14:21:20.837Z,4.61
2023-05-15T14:22:43.573Z,5.91
2023-05-15T14:24:05.701Z,3.94
2023-05-15T14:25:27.177Z,3.35
2023-05-15T14:26:48.840Z,4.34
2023-05-15T14:28:12.948Z,3.62
2023-05-15T14:29:34.965Z,4.15
2023-05-15T14:30:59.116Z,3.39
2023-05-15T14:32:20.840Z,4.01
2023-05-15T14:33:54.641Z,4.41
2023-05-15T14:35:16.741Z,4.00
2023-05-15T14:36:38.392Z,3.95
2023-05-15T14:38:02.750Z,5.21
2023-05-15T14:39:31.538Z,6.66
2023-05-15T14:40:53.465Z,5.20
2023-05-15T14:42:17.070Z,8.67
2023-05-15T14:43:40.749Z,7.37
2023-05-15T14:45:03.007Z,7.47
2023-05-15T14:46:24.525Z,6.96
2023-05-15T14:47:48.516Z,7.17
2023-05-15T14:49:13.360Z,6.00
2023-05-15T14:50:35.192Z,5.37
2023-05-15T14:51:57.381Z,4.94
2023-05-15T14:53:19.257Z,4.93
2023-05-15T14:54:40.751Z,5.65
2023-05-15T14:56:05.070Z,5.59
2023-05-15T14:57:26.842Z,4.49
2023-05-15T14:58:49.055Z,6.81
2023-05-15T15:00:13.440Z,5.98
2023-05-15T15:01:37.467Z,5.81
2023-05-15T15:02:59.488Z,6.35
2023-05-15T15:04:29.174Z,7.26
2023-05-15T15:05:51.903Z,6.56
2023-05-15T15:07:16.152Z,4.20
2023-05-15T15:08:38.161Z,5.30
2023-05-15T15:10:00.416Z,6.20
2023-05-15T15:11:22.315Z,4.81
2023-05-15T15:12:46.452Z,4.57
2023-05-15T15:14:08.761Z,4.35
2023-05-15T15:15:30.606Z,4.07
2023-05-15T15:16:52.125Z,4.00
2023-05-15T15:18:14.213Z,4.90
2023-05-15T15:19:38.779Z,4.85
2023-05-15T15:21:00.775Z,5.42
2023-05-15T15:22:22.571Z,5.21
2023-05-15T15:23:49.078Z,6.78
2023-05-15T15:25:20.474Z,5.65
2023-05-15T15:26:42.032Z,5.57
2023-05-15T15:28:11.564Z,4.07
2023-05-15T15:29:33.354Z,4.54
2023-05-15T15:30:55.056Z,5.22
2023-05-15T15:32:23.910Z,4.75
2023-05-15T15:33:45.970Z,6.84
2023-05-15T15:35:10.080Z,6.13
2023-05-15T15:36:51.006Z,6.79
2023-05-15T15:38:13.328Z,6.09
2023-05-15T15:39:35.138Z,6.60
2023-05-15T15:40:57.004Z,5.48
2023-05-15T15:42:23.470Z,5.39
2023-05-15T15:43:45.402Z,5.66
2023-05-15T15:45:07.241Z,4.91
2023-05-15T15:46:28.870Z,5.53
2023-05-15T15:47:51.120Z,4.83
2023-05-15T15:49:15.894Z,4.51
2023-05-15T15:50:37.869Z,4.40
2023-05-15T15:52:04.557Z,6.54
2023-05-15T15:53:34.528Z,7.73
2023-05-15T15:54:56.557Z,7.93
2023-05-15T15:56:18.061Z,7.73
2023-05-15T15:57:39.551Z,6.75
2023-05-15T15:59:01.321Z,5.43
2023-05-15T16:00:25.402Z,5.26
2023-05-15T16:01:52.148Z,5.82
2023-05-15T16:03:14.647Z,6.56
2023-05-15T16:04:36.530Z,8.03
2023-05-15T16:05:59.917Z,7.36
2023-05-15T16:07:22.110Z,6.47
2023-05-15T16:08:43.793Z,7.66
2023-05-15T16:11:32.132Z,5.33
2023-05-15T16:12:56.969Z,4.93
2023-05-15T16:14:20.741Z,4.96
2023-05-15T16:15:47.044Z,5.51
2023-05-15T16:17:11.255Z,6.09
2023-05-15T16:18:32.985Z,6.39
2023-05-15T16:19:54.916Z,5.68
2023-05-15T16:21:16.768Z,5.66
2023-05-15T16:22:41.777Z,4.86
2023-05-15T16:24:03.821Z,4.51
2023-05-15T16:25:28.134Z,4.27
2023-05-15T16:26:52.199Z,4.53
2023-05-15T16:28:16.900Z,4.96
2023-05-15T16:29:41.299Z,5.51
2023-05-15T16:31:10.658Z,4.40
2023-05-15T16:32:33.961Z,5.70
2023-05-15T16:33:55.907Z,5.53
2023-05-15T16:35:19.867Z,5.42
2023-05-15T16:36:49.197Z,4.52
2023-05-15T16:38:13.683Z,4.23
2023-05-15T16:39:40.289Z,4.16
2023-05-15T16:41:16.995Z,4.32
2023-05-15T16:42:41.258Z,4.72
2023-05-15T16:44:13.086Z,6.19
2023-05-15T16:45:39.598Z,5.01
2023-05-15T16:47:05.903Z,4.62
2023-05-15T16:48:30.001Z,6.01
2023-05-15T16:50:03.777Z,7.48
2023-05-15T16:51:25.203Z,7.21
2023-05-15T16:52:48.131Z,4.82
2023-05-15T16:54:09.985Z,4.57
2023-05-15T16:55:43.557Z,5.08
2023-05-15T16:57:16.714Z,4.34
2023-05-15T16:58:38.071Z,4.20
2023-05-15T17:00:02.626Z,3.89
2023-05-15T17:01:24.178Z,3.34
2023-05-15T17:02:46.056Z,3.99
2023-05-15T17:04:11.344Z,3.96
2023-05-15T17:05:33.048Z,3.70
2023-05-15T17:06:54.637Z,5.43
2023-05-15T17:08:18.817Z,5.46
2023-05-15T17:09:43.060Z,4.44
2023-05-15T17:11:05.162Z,4.32
2023-05-15T17:12:26.904Z,3.55
2023-05-15T17:13:48.634Z,4.41
2023-05-15T17:15:18.112Z,5.03
2023-05-15T17:16:40.305Z,4.22
2023-05-15T17:18:02.206Z,3.86
2023-05-15T17:19:24.282Z,3.75
2023-05-15T17:20:45.954Z,4.12
2023-05-15T17:22:07.843Z,4.62
2023-05-15T17:23:29.588Z,5.02
2023-05-15T17:24:52.052Z,5.74
2023-05-15T17:26:35.353Z,5.44
2023-05-15T17:28:16.437Z,7.18
2023-05-15T17:29:38.337Z,8.92
2023-05-15T17:31:14.304Z,6.88
2023-05-15T17:32:59.711Z,6.46
2023-05-15T17:34:35.834Z,6.48
2023-05-15T17:36:30.160Z,7.23
2023-05-15T17:38:15.409Z,6.78
2023-05-15T17:40:00.634Z,7.08
2023-05-15T17:41:33.892Z,6.80
2023-05-15T17:42:58.216Z,7.02
2023-05-15T17:44:27.706Z,7.86
2023-05-15T17:46:03.584Z,7.45
2023-05-15T17:47:49.013Z,8.13
2023-05-15T17:49:34.281Z,7.29
2023-05-15T17:51:07.938Z,7.48
2023-05-15T17:52:41.504Z,7.07
2023-05-15T17:54:26.244Z,7.69
2023-05-15T17:56:11.528Z,7.66
2023-05-15T17:57:56.379Z,7.52
2023-05-15T17:59:43.892Z,7.13
2023-05-15T18:01:19.895Z,7.02
2023-05-15T18:03:14.194Z,7.08
2023-05-15T18:04:48.156Z,7.47
2023-05-15T18:06:21.387Z,7.85
2023-05-15T18:08:06.877Z,7.81
2023-05-15T18:09:42.604Z,8.11
2023-05-15T18:11:14.257Z,8.95
2023-05-15T18:12:57.107Z,9.01
2023-05-15T18:14:21.361Z,8.85
2023-05-15T18:15:45.511Z,8.16
2023-05-15T18:17:16.670Z,8.18
2023-05-15T18:19:01.437Z,8.43
2023-05-15T18:20:46.445Z,11.04
2023-05-15T18:22:31.178Z,12.30
2023-05-15T18:24:07.146Z,11.22
2023-05-15T18:25:28.703Z,9.99
2023-05-15T18:27:00.565Z,8.54
2023-05-15T18:28:34.012Z,9.42
2023-05-15T18:30:17.157Z,8.63
2023-05-15T18:32:02.281Z,8.08
2023-05-15T18:33:46.123Z,7.90
2023-05-15T18:35:30.419Z,8.16
2023-05-15T18:37:06.644Z,8.17
2023-05-15T18:38:39.789Z,7.98
2023-05-15T18:40:01.832Z,7.94
2023-05-15T18:41:46.825Z,7.87
2023-05-15T18:45:08.452Z,7.08
2023-05-15T18:46:31.707Z,7.22
2023-05-15T18:48:10.557Z,6.90
2023-05-15T18:49:52.084Z,7.15
2023-05-15T18:51:14.413Z,6.68
2023-05-15T18:52:47.894Z,7.01
2023-05-15T18:54:14.586Z,6.97
2023-05-15T18:55:48.021Z,6.56
2023-05-15T18:57:18.091Z,7.12
2023-05-15T18:58:51.839Z,6.48
2023-05-15T19:00:38.821Z,6.69
2023-05-15T19:02:15.008Z,6.84
2023-05-15T19:03:48.537Z,6.44
2023-05-15T19:05:33.589Z,6.48
2023-05-15T19:07:14.362Z,6.72
2023-05-15T19:08:59.230Z,6.63
2023-05-15T19:10:40.089Z,7.39
2023-05-15T19:12:06.364Z,6.67
2023-05-15T19:13:51.643Z,6.75
2023-05-15T19:15:25.286Z,6.83
2023-05-15T19:16:51.522Z,6.74
2023-05-15T19:18:36.951Z,6.32
2023-05-15T19:20:18.324Z,6.28
2023-05-15T19:21:51.742Z,6.96
2023-05-15T19:23:35.948Z,6.43
2023-05-15T19:25:16.649Z,6.87
2023-05-15T19:26:47.697Z,7.43
2023-05-15T19:28:21.277Z,8.72
2023-05-15T19:29:43.061Z,9.42
2023-05-15T19:31:14.022Z,7.25
2023-05-15T19:32:38.931Z,7.20
2023-05-15T19:34:00.815Z,13.10
2023-05-15T19:35:24.960Z,9.86
2023-05-15T19:36:47.030Z,12.85
2023-05-15T19:38:09.012Z,20.89
2023-05-15T19:39:30.385Z,16.76
2023-05-15T19:40:54.304Z,15.65
2023-05-15T19:42:16.508Z,24.29
2023-05-15T19:43:45.425Z,17.87
2023-05-15T19:45:07.597Z,12.61
2023-05-15T19:46:31.594Z,7.97
2023-05-15T19:47:53.259Z,8.40
2023-05-15T19:49:15.487Z,7.98
2023-05-15T19:50:37.008Z,7.31
2023-05-15T19:51:58.491Z,10.63
2023-05-15T19:53:20.627Z,11.86
2023-05-15T19:54:42.707Z,14.70
2023-05-15T19:56:04.877Z,21.22
2023-05-15T19:57:26.464Z,14.19
2023-05-15T19:58:48.356Z,16.09
2023-05-15T20:00:10.635Z,15.89
2023-05-15T20:01:32.256Z,14.76
2023-05-15T20:02:53.950Z,15.27